sensor_id;sensor_type;location;lat;lon;timestamp;P1;durP1;ratioP1;P2;durP2;ratioP2
24761;SDS011;12865;51.934;10.330;2023-11-22T00:00:07;4.93;;;4.18;;
24761;SDS011;12865;51.934;10.330;2023-11-22T00:02:54;4.85;;;4.32;;
24761;SDS011;12865;51.934;10.330;2023-11-22T00:05:40;6.22;;;4.28;;
24761;SDS011;12865;51.934;10.330;2023-11-22T00:08:26;5.43;;;4.32;;
24761;SDS011;12865;51.934;10.330;2023-11-22T00:11:12;6.35;;;5.20;;
24761;SDS011;12865;51.934;10.330;2023-11-22T00:14:01;7.78;;;5.60;;
24761;SDS011;12865;51.934;10.330;2023-11-22T00:16:48;5.55;;;4.85;;
24761;SDS011;12865;51.934;10.330;2023-11-22T00:19:34;8.98;;;5.68;;
24761;SDS011;12865;51.934;10.330;2023-11-22T00:22:23;6.32;;;5.40;;
24761;SDS011;12865;51.934;10.330;2023-11-22T00:25:11;5.75;;;5.15;;
24761;SDS011;12865;51.934;10.330;2023-11-22T00:27:58;6.25;;;5.28;;
24761;SDS011;12865;51.934;10.330;2023-11-22T00:30:44;6.78;;;5.00;;
24761;SDS011;12865;51.934;10.330;2023-11-22T00:33:30;5.93;;;4.75;;
24761;SDS011;12865;51.934;10.330;2023-11-22T00:36:16;8.63;;;4.82;;
24761;SDS011;12865;51.934;10.330;2023-11-22T00:39:03;7.25;;;5.45;;
24761;SDS011;12865;51.934;10.330;2023-11-22T00:41:49;5.47;;;4.97;;
24761;SDS011;12865;51.934;10.330;2023-11-22T00:44:34;5.68;;;4.85;;
24761;SDS011;12865;51.934;10.330;2023-11-22T00:47:21;6.75;;;4.97;;
24761;SDS011;12865;51.934;10.330;2023-11-22T00:50:07;5.53;;;5.03;;
24761;SDS011;12865;51.934;10.330;2023-11-22T00:52:53;6.47;;;5.03;;
24761;SDS011;12865;51.934;10.330;2023-11-22T00:55:39;5.68;;;5.00;;
24761;SDS011;12865;51.934;10.330;2023-11-22T00:58:25;5.50;;;5.00;;
24761;SDS011;12865;51.934;10.330;2023-11-22T01:01:12;5.82;;;4.97;;
24761;SDS011;12865;51.934;10.330;2023-11-22T01:03:58;5.43;;;4.43;;
24761;SDS011;12865;51.934;10.330;2023-11-22T01:06:43;6.97;;;4.20;;
24761;SDS011;12865;51.934;10.330;2023-11-22T01:09:29;6.00;;;4.65;;
24761;SDS011;12865;51.934;10.330;2023-11-22T01:12:15;6.28;;;4.72;;
24761;SDS011;12865;51.934;10.330;2023-11-22T01:15:01;5.35;;;3.67;;
24761;SDS011;12865;51.934;10.330;2023-11-22T01:17:47;5.32;;;4.40;;
24761;SDS011;12865;51.934;10.330;2023-11-22T01:20:33;5.60;;;4.10;;
24761;SDS011;12865;51.934;10.330;2023-11-22T01:23:19;4.80;;;4.20;;
24761;SDS011;12865;51.934;10.330;2023-11-22T01:26:05;4.78;;;4.22;;
24761;SDS011;12865;51.934;10.330;2023-11-22T01:28:51;6.18;;;4.07;;
24761;SDS011;12865;51.934;10.330;2023-11-22T01:31:37;4.38;;;3.80;;
24761;SDS011;12865;51.934;10.330;2023-11-22T01:34:24;5.10;;;3.75;;
24761;SDS011;12865;51.934;10.330;2023-11-22T01:37:10;6.07;;;4.65;;
24761;SDS011;12865;51.934;10.330;2023-11-22T01:39:56;5.40;;;3.78;;
24761;SDS011;12865;51.934;10.330;2023-11-22T01:42:42;5.03;;;3.83;;
24761;SDS011;12865;51.934;10.330;2023-11-22T01:45:28;4.20;;;3.80;;
24761;SDS011;12865;51.934;10.330;2023-11-22T01:48:14;4.50;;;4.10;;
24761;SDS011;12865;51.934;10.330;2023-11-22T01:50:59;3.75;;;3.45;;
24761;SDS011;12865;51.934;10.330;2023-11-22T01:53:46;4.63;;;3.70;;
24761;SDS011;12865;51.934;10.330;2023-11-22T01:56:32;4.80;;;3.90;;
24761;SDS011;12865;51.934;10.330;2023-11-22T01:59:22;4.68;;;4.03;;
24761;SDS011;12865;51.934;10.330;2023-11-22T02:02:08;4.90;;;3.97;;
24761;SDS011;12865;51.934;10.330;2023-11-22T02:04:53;5.60;;;4.13;;
24761;SDS011;12865;51.934;10.330;2023-11-22T02:07:39;4.80;;;4.18;;
24761;SDS011;12865;51.934;10.330;2023-11-22T02:10:26;5.15;;;3.83;;
24761;SDS011;12865;51.934;10.330;2023-11-22T02:13:12;6.03;;;3.70;;
24761;SDS011;12865;51.934;10.330;2023-11-22T02:15:58;4.63;;;3.85;;
24761;SDS011;12865;51.934;10.330;2023-11-22T02:18:49;4.85;;;3.60;;
24761;SDS011;12865;51.934;10.330;2023-11-22T02:21:35;4.65;;;3.67;;
24761;SDS011;12865;51.934;10.330;2023-11-22T02:24:21;5.82;;;4.30;;
24761;SDS011;12865;51.934;10.330;2023-11-22T02:27:07;5.03;;;4.32;;
24761;SDS011;12865;51.934;10.330;2023-11-22T02:29:52;4.55;;;4.07;;
24761;SDS011;12865;51.934;10.330;2023-11-22T02:32:38;4.45;;;4.00;;
24761;SDS011;12865;51.934;10.330;2023-11-22T02:35:26;4.67;;;4.10;;
24761;SDS011;12865;51.934;10.330;2023-11-22T02:38:12;4.97;;;4.50;;
24761;SDS011;12865;51.934;10.330;2023-11-22T02:40:58;5.00;;;4.50;;
24761;SDS011;12865;51.934;10.330;2023-11-22T02:43:43;4.85;;;4.20;;
24761;SDS011;12865;51.934;10.330;2023-11-22T02:46:29;4.22;;;3.83;;
24761;SDS011;12865;51.934;10.330;2023-11-22T02:49:16;5.97;;;4.45;;
24761;SDS011;12865;51.934;10.330;2023-11-22T02:52:02;5.95;;;4.47;;
24761;SDS011;12865;51.934;10.330;2023-11-22T02:54:47;4.75;;;3.70;;
24761;SDS011;12865;51.934;10.330;2023-11-22T02:57:34;4.28;;;3.88;;
24761;SDS011;12865;51.934;10.330;2023-11-22T03:00:20;4.40;;;4.00;;
24761;SDS011;12865;51.934;10.330;2023-11-22T03:03:06;5.22;;;4.35;;
24761;SDS011;12865;51.934;10.330;2023-11-22T03:05:55;5.22;;;4.25;;
24761;SDS011;12865;51.934;10.330;2023-11-22T03:08:41;5.25;;;4.75;;
24761;SDS011;12865;51.934;10.330;2023-11-22T03:11:26;4.90;;;3.88;;
24761;SDS011;12865;51.934;10.330;2023-11-22T03:14:12;4.80;;;4.10;;
24761;SDS011;12865;51.934;10.330;2023-11-22T03:16:58;4.65;;;4.25;;
24761;SDS011;12865;51.934;10.330;2023-11-22T03:19:44;4.68;;;4.28;;
24761;SDS011;12865;51.934;10.330;2023-11-22T03:22:31;5.13;;;4.47;;
24761;SDS011;12865;51.934;10.330;2023-11-22T03:25:18;4.95;;;4.10;;
24761;SDS011;12865;51.934;10.330;2023-11-22T03:28:04;4.38;;;3.97;;
24761;SDS011;12865;51.934;10.330;2023-11-22T03:30:50;5.65;;;4.35;;
24761;SDS011;12865;51.934;10.330;2023-11-22T03:33:35;7.63;;;5.03;;
24761;SDS011;12865;51.934;10.330;2023-11-22T03:36:21;5.95;;;4.70;;
24761;SDS011;12865;51.934;10.330;2023-11-22T03:39:08;6.07;;;4.57;;
24761;SDS011;12865;51.934;10.330;2023-11-22T03:41:55;5.47;;;4.68;;
24761;SDS011;12865;51.934;10.330;2023-11-22T03:44:42;5.00;;;4.57;;
24761;SDS011;12865;51.934;10.330;2023-11-22T03:47:28;5.57;;;4.85;;
24761;SDS011;12865;51.934;10.330;2023-11-22T03:50:14;5.13;;;4.63;;
24761;SDS011;12865;51.934;10.330;2023-11-22T03:53:00;5.38;;;4.38;;
24761;SDS011;12865;51.934;10.330;2023-11-22T03:55:45;6.00;;;4.70;;
24761;SDS011;12865;51.934;10.330;2023-11-22T03:58:31;5.53;;;4.75;;
24761;SDS011;12865;51.934;10.330;2023-11-22T04:01:17;5.10;;;4.45;;
24761;SDS011;12865;51.934;10.330;2023-11-22T04:04:04;5.70;;;4.65;;
24761;SDS011;12865;51.934;10.330;2023-11-22T04:06:50;5.50;;;4.68;;
24761;SDS011;12865;51.934;10.330;2023-11-22T04:09:35;6.32;;;5.15;;
24761;SDS011;12865;51.934;10.330;2023-11-22T04:12:21;6.47;;;5.28;;
24761;SDS011;12865;51.934;10.330;2023-11-22T04:15:07;5.85;;;5.10;;
24761;SDS011;12865;51.934;10.330;2023-11-22T04:17:55;7.68;;;5.30;;
24761;SDS011;12865;51.934;10.330;2023-11-22T04:20:40;5.78;;;5.20;;
24761;SDS011;12865;51.934;10.330;2023-11-22T04:23:26;6.88;;;5.70;;
24761;SDS011;12865;51.934;10.330;2023-11-22T04:26:12;6.28;;;5.65;;
24761;SDS011;12865;51.934;10.330;2023-11-22T04:28:57;6.25;;;5.57;;
24761;SDS011;12865;51.934;10.330;2023-11-22T04:31:43;8.13;;;5.75;;
24761;SDS011;12865;51.934;10.330;2023-11-22T04:34:29;7.53;;;5.25;;
24761;SDS011;12865;51.934;10.330;2023-11-22T04:37:15;5.35;;;4.80;;
24761;SDS011;12865;51.934;10.330;2023-11-22T04:40:01;6.93;;;5.63;;
24761;SDS011;12865;51.934;10.330;2023-11-22T04:42:48;5.63;;;5.07;;
24761;SDS011;12865;51.934;10.330;2023-11-22T04:45:33;8.05;;;5.40;;
24761;SDS011;12865;51.934;10.330;2023-11-22T04:48:19;9.05;;;6.30;;
24761;SDS011;12865;51.934;10.330;2023-11-22T04:51:05;7.35;;;5.85;;
24761;SDS011;12865;51.934;10.330;2023-11-22T04:53:51;7.63;;;6.32;;
24761;SDS011;12865;51.934;10.330;2023-11-22T04:56:36;10.18;;;6.50;;
24761;SDS011;12865;51.934;10.330;2023-11-22T04:59:22;7.13;;;6.00;;
24761;SDS011;12865;51.934;10.330;2023-11-22T05:02:08;7.55;;;6.50;;
24761;SDS011;12865;51.934;10.330;2023-11-22T05:04:53;7.82;;;6.38;;
24761;SDS011;12865;51.934;10.330;2023-11-22T05:07:39;7.10;;;6.40;;
24761;SDS011;12865;51.934;10.330;2023-11-22T05:10:25;8.27;;;6.43;;
24761;SDS011;12865;51.934;10.330;2023-11-22T05:13:10;8.10;;;6.47;;
24761;SDS011;12865;51.934;10.330;2023-11-22T05:15:56;9.52;;;6.88;;
24761;SDS011;12865;51.934;10.330;2023-11-22T05:18:42;7.57;;;5.90;;
24761;SDS011;12865;51.934;10.330;2023-11-22T05:21:27;10.20;;;6.65;;
24761;SDS011;12865;51.934;10.330;2023-11-22T05:24:13;7.60;;;6.90;;
24761;SDS011;12865;51.934;10.330;2023-11-22T05:27:00;9.32;;;6.85;;
24761;SDS011;12865;51.934;10.330;2023-11-22T05:29:47;8.60;;;7.10;;
24761;SDS011;12865;51.934;10.330;2023-11-22T05:32:33;7.60;;;6.78;;
24761;SDS011;12865;51.934;10.330;2023-11-22T05:35:18;8.95;;;7.47;;
24761;SDS011;12865;51.934;10.330;2023-11-22T05:38:05;11.95;;;8.35;;
24761;SDS011;12865;51.934;10.330;2023-11-22T05:40:50;10.77;;;7.70;;
24761;SDS011;12865;51.934;10.330;2023-11-22T05:43:36;8.77;;;7.88;;
24761;SDS011;12865;51.934;10.330;2023-11-22T05:46:22;9.88;;;8.15;;
24761;SDS011;12865;51.934;10.330;2023-11-22T05:49:09;9.65;;;7.53;;
24761;SDS011;12865;51.934;10.330;2023-11-22T05:51:58;10.80;;;7.32;;
24761;SDS011;12865;51.934;10.330;2023-11-22T05:54:44;8.18;;;7.38;;
24761;SDS011;12865;51.934;10.330;2023-11-22T05:57:30;9.45;;;7.75;;
24761;SDS011;12865;51.934;10.330;2023-11-22T06:00:16;8.45;;;7.32;;
24761;SDS011;12865;51.934;10.330;2023-11-22T06:03:02;8.45;;;7.45;;
24761;SDS011;12865;51.934;10.330;2023-11-22T06:05:47;7.53;;;6.72;;
24761;SDS011;12865;51.934;10.330;2023-11-22T06:08:33;6.47;;;5.82;;
24761;SDS011;12865;51.934;10.330;2023-11-22T06:11:19;8.20;;;7.35;;
24761;SDS011;12865;51.934;10.330;2023-11-22T06:14:05;6.90;;;6.20;;
24761;SDS011;12865;51.934;10.330;2023-11-22T06:16:51;8.57;;;6.70;;
24761;SDS011;12865;51.934;10.330;2023-11-22T06:19:36;7.60;;;6.65;;
24761;SDS011;12865;51.934;10.330;2023-11-22T06:22:22;9.40;;;7.03;;
24761;SDS011;12865;51.934;10.330;2023-11-22T06:27:54;7.10;;;6.20;;
24761;SDS011;12865;51.934;10.330;2023-11-22T06:30:41;7.82;;;6.13;;
24761;SDS011;12865;51.934;10.330;2023-11-22T06:33:27;7.78;;;5.53;;
24761;SDS011;12865;51.934;10.330;2023-11-22T06:36:13;8.25;;;6.28;;
24761;SDS011;12865;51.934;10.330;2023-11-22T06:39:00;7.43;;;6.57;;
24761;SDS011;12865;51.934;10.330;2023-11-22T06:41:46;8.10;;;6.10;;
24761;SDS011;12865;51.934;10.330;2023-11-22T06:44:32;7.22;;;6.38;;
24761;SDS011;12865;51.934;10.330;2023-11-22T06:47:19;8.32;;;5.95;;
24761;SDS011;12865;51.934;10.330;2023-11-22T06:50:05;6.93;;;6.13;;
24761;SDS011;12865;51.934;10.330;2023-11-22T06:55:40;8.45;;;6.68;;
24761;SDS011;12865;51.934;10.330;2023-11-22T06:58:25;6.57;;;5.88;;
24761;SDS011;12865;51.934;10.330;2023-11-22T07:01:11;6.95;;;5.47;;
24761;SDS011;12865;51.934;10.330;2023-11-22T07:03:57;9.07;;;6.47;;
24761;SDS011;12865;51.934;10.330;2023-11-22T07:06:42;7.70;;;6.85;;
24761;SDS011;12865;51.934;10.330;2023-11-22T07:09:29;7.88;;;6.70;;
24761;SDS011;12865;51.934;10.330;2023-11-22T07:12:15;7.53;;;5.90;;
24761;SDS011;12865;51.934;10.330;2023-11-22T07:15:01;7.68;;;5.68;;
24761;SDS011;12865;51.934;10.330;2023-11-22T07:17:48;8.05;;;6.35;;
24761;SDS011;12865;51.934;10.330;2023-11-22T07:20:34;9.55;;;6.10;;
24761;SDS011;12865;51.934;10.330;2023-11-22T07:23:20;6.72;;;6.03;;
24761;SDS011;12865;51.934;10.330;2023-11-22T07:26:06;6.90;;;6.18;;
24761;SDS011;12865;51.934;10.330;2023-11-22T07:28:52;7.47;;;6.68;;
24761;SDS011;12865;51.934;10.330;2023-11-22T07:31:39;7.95;;;6.00;;
24761;SDS011;12865;51.934;10.330;2023-11-22T07:34:25;7.30;;;6.32;;
24761;SDS011;12865;51.934;10.330;2023-11-22T07:37:10;6.78;;;5.82;;
24761;SDS011;12865;51.934;10.330;2023-11-22T07:39:58;6.13;;;5.53;;
24761;SDS011;12865;51.934;10.330;2023-11-22T07:42:43;6.75;;;6.10;;
24761;SDS011;12865;51.934;10.330;2023-11-22T07:45:29;7.78;;;5.55;;
24761;SDS011;12865;51.934;10.330;2023-11-22T07:48:15;7.53;;;6.45;;
24761;SDS011;12865;51.934;10.330;2023-11-22T07:51:00;6.70;;;6.00;;
24761;SDS011;12865;51.934;10.330;2023-11-22T07:53:46;7.25;;;6.55;;
24761;SDS011;12865;51.934;10.330;2023-11-22T07:56:32;7.22;;;6.53;;
24761;SDS011;12865;51.934;10.330;2023-11-22T07:59:18;6.72;;;6.03;;
24761;SDS011;12865;51.934;10.330;2023-11-22T08:02:05;7.75;;;6.40;;
24761;SDS011;12865;51.934;10.330;2023-11-22T08:04:56;13.55;;;6.50;;
24761;SDS011;12865;51.934;10.330;2023-11-22T08:07:42;7.28;;;6.32;;
24761;SDS011;12865;51.934;10.330;2023-11-22T08:10:31;7.30;;;6.40;;
24761;SDS011;12865;51.934;10.330;2023-11-22T08:13:17;7.65;;;6.15;;
24761;SDS011;12865;51.934;10.330;2023-11-22T08:16:04;8.23;;;6.28;;
24761;SDS011;12865;51.934;10.330;2023-11-22T08:18:50;7.57;;;6.05;;
24761;SDS011;12865;51.934;10.330;2023-11-22T08:21:36;7.22;;;6.53;;
24761;SDS011;12865;51.934;10.330;2023-11-22T08:24:22;10.60;;;8.13;;
24761;SDS011;12865;51.934;10.330;2023-11-22T08:27:07;11.48;;;7.78;;
24761;SDS011;12865;51.934;10.330;2023-11-22T08:29:53;10.05;;;8.70;;
24761;SDS011;12865;51.934;10.330;2023-11-22T08:32:39;9.73;;;8.73;;
24761;SDS011;12865;51.934;10.330;2023-11-22T08:35:26;11.13;;;8.90;;
24761;SDS011;12865;51.934;10.330;2023-11-22T08:38:12;11.15;;;9.32;;
24761;SDS011;12865;51.934;10.330;2023-11-22T08:41:00;10.38;;;9.13;;
24761;SDS011;12865;51.934;10.330;2023-11-22T08:43:51;10.98;;;9.23;;
24761;SDS011;12865;51.934;10.330;2023-11-22T08:46:37;10.93;;;8.65;;
24761;SDS011;12865;51.934;10.330;2023-11-22T08:49:22;10.15;;;9.02;;
24761;SDS011;12865;51.934;10.330;2023-11-22T08:52:08;11.30;;;8.85;;
24761;SDS011;12865;51.934;10.330;2023-11-22T08:54:54;10.60;;;8.73;;
24761;SDS011;12865;51.934;10.330;2023-11-22T08:57:40;9.23;;;8.13;;
24761;SDS011;12865;51.934;10.330;2023-11-22T09:00:26;10.30;;;9.13;;
24761;SDS011;12865;51.934;10.330;2023-11-22T09:03:14;9.80;;;8.48;;
24761;SDS011;12865;51.934;10.330;2023-11-22T09:05:59;10.43;;;8.82;;
24761;SDS011;12865;51.934;10.330;2023-11-22T09:08:45;10.57;;;9.02;;
24761;SDS011;12865;51.934;10.330;2023-11-22T09:11:31;10.00;;;8.65;;
24761;SDS011;12865;51.934;10.330;2023-11-22T09:14:19;10.82;;;8.60;;
24761;SDS011;12865;51.934;10.330;2023-11-22T09:17:06;10.65;;;8.52;;
24761;SDS011;12865;51.934;10.330;2023-11-22T09:19:52;11.55;;;8.93;;
24761;SDS011;12865;51.934;10.330;2023-11-22T09:22:42;13.02;;;8.93;;
24761;SDS011;12865;51.934;10.330;2023-11-22T09:25:31;11.38;;;8.43;;
24761;SDS011;12865;51.934;10.330;2023-11-22T09:28:18;13.35;;;9.68;;
24761;SDS011;12865;51.934;10.330;2023-11-22T09:31:05;10.70;;;9.18;;
24761;SDS011;12865;51.934;10.330;2023-11-22T09:33:54;10.43;;;9.32;;
24761;SDS011;12865;51.934;10.330;2023-11-22T09:36:39;11.32;;;9.45;;
24761;SDS011;12865;51.934;10.330;2023-11-22T09:39:25;11.75;;;9.40;;
24761;SDS011;12865;51.934;10.330;2023-11-22T09:42:11;11.70;;;9.25;;
24761;SDS011;12865;51.934;10.330;2023-11-22T09:44:59;12.27;;;9.48;;
24761;SDS011;12865;51.934;10.330;2023-11-22T09:47:44;11.88;;;9.93;;
24761;SDS011;12865;51.934;10.330;2023-11-22T09:56:38;12.47;;;9.80;;
24761;SDS011;12865;51.934;10.330;2023-11-22T09:59:24;11.75;;;9.73;;
24761;SDS011;12865;51.934;10.330;2023-11-22T10:02:10;12.43;;;10.23;;
24761;SDS011;12865;51.934;10.330;2023-11-22T10:04:55;11.80;;;10.43;;
24761;SDS011;12865;51.934;10.330;2023-11-22T10:07:42;12.60;;;9.90;;
24761;SDS011;12865;51.934;10.330;2023-11-22T10:10:28;13.75;;;10.40;;
24761;SDS011;12865;51.934;10.330;2023-11-22T10:13:17;13.60;;;8.80;;
24761;SDS011;12865;51.934;10.330;2023-11-22T10:16:12;11.27;;;8.88;;
24761;SDS011;12865;51.934;10.330;2023-11-22T10:19:00;10.27;;;8.90;;
24761;SDS011;12865;51.934;10.330;2023-11-22T10:21:46;15.10;;;10.05;;
24761;SDS011;12865;51.934;10.330;2023-11-22T10:24:33;12.45;;;9.88;;
24761;SDS011;12865;51.934;10.330;2023-11-22T10:27:19;13.23;;;9.95;;
24761;SDS011;12865;51.934;10.330;2023-11-22T10:30:05;14.02;;;9.77;;
24761;SDS011;12865;51.934;10.330;2023-11-22T10:32:52;12.13;;;9.57;;
24761;SDS011;12865;51.934;10.330;2023-11-22T10:35:37;12.07;;;8.93;;
24761;SDS011;12865;51.934;10.330;2023-11-22T10:38:23;14.77;;;10.68;;
24761;SDS011;12865;51.934;10.330;2023-11-22T10:41:09;12.68;;;10.25;;
24761;SDS011;12865;51.934;10.330;2023-11-22T10:43:55;14.68;;;9.85;;
24761;SDS011;12865;51.934;10.330;2023-11-22T10:46:42;13.05;;;9.68;;
24761;SDS011;12865;51.934;10.330;2023-11-22T10:49:28;15.75;;;10.45;;
24761;SDS011;12865;51.934;10.330;2023-11-22T10:52:14;13.07;;;10.70;;
24761;SDS011;12865;51.934;10.330;2023-11-22T10:55:01;14.18;;;9.70;;
24761;SDS011;12865;51.934;10.330;2023-11-22T10:57:59;13.93;;;10.70;;
24761;SDS011;12865;51.934;10.330;2023-11-22T11:00:48;13.30;;;9.98;;
24761;SDS011;12865;51.934;10.330;2023-11-22T11:03:37;13.45;;;10.57;;
24761;SDS011;12865;51.934;10.330;2023-11-22T11:09:17;13.13;;;10.52;;
24761;SDS011;12865;51.934;10.330;2023-11-22T11:12:06;14.73;;;10.35;;
24761;SDS011;12865;51.934;10.330;2023-11-22T11:14:53;13.30;;;11.25;;
24761;SDS011;12865;51.934;10.330;2023-11-22T11:17:38;12.82;;;10.48;;
24761;SDS011;12865;51.934;10.330;2023-11-22T11:20:25;14.75;;;9.93;;
24761;SDS011;12865;51.934;10.330;2023-11-22T11:23:11;14.02;;;10.35;;
24761;SDS011;12865;51.934;10.330;2023-11-22T11:26:08;12.55;;;9.88;;
24761;SDS011;12865;51.934;10.330;2023-11-22T11:29:01;12.30;;;9.27;;
24761;SDS011;12865;51.934;10.330;2023-11-22T11:31:49;14.63;;;9.57;;
24761;SDS011;12865;51.934;10.330;2023-11-22T11:34:45;13.23;;;9.70;;
24761;SDS011;12865;51.934;10.330;2023-11-22T11:37:33;13.00;;;10.40;;
24761;SDS011;12865;51.934;10.330;2023-11-22T11:40:26;12.88;;;10.07;;
24761;SDS011;12865;51.934;10.330;2023-11-22T11:43:20;14.20;;;10.20;;
24761;SDS011;12865;51.934;10.330;2023-11-22T11:46:06;12.32;;;10.00;;
24761;SDS011;12865;51.934;10.330;2023-11-22T11:48:53;11.55;;;9.20;;
24761;SDS011;12865;51.934;10.330;2023-11-22T11:51:40;11.57;;;9.63;;
24761;SDS011;12865;51.934;10.330;2023-11-22T11:54:28;11.23;;;9.10;;
24761;SDS011;12865;51.934;10.330;2023-11-22T11:57:13;11.25;;;8.85;;
24761;SDS011;12865;51.934;10.330;2023-11-22T11:59:59;12.52;;;9.55;;
24761;SDS011;12865;51.934;10.330;2023-11-22T12:02:45;12.52;;;9.70;;
24761;SDS011;12865;51.934;10.330;2023-11-22T12:05:31;14.23;;;9.65;;
24761;SDS011;12865;51.934;10.330;2023-11-22T12:08:17;12.55;;;9.63;;
24761;SDS011;12865;51.934;10.330;2023-11-22T12:11:04;12.55;;;9.52;;
24761;SDS011;12865;51.934;10.330;2023-11-22T12:13:52;12.15;;;9.38;;
24761;SDS011;12865;51.934;10.330;2023-11-22T12:16:38;12.45;;;9.60;;
24761;SDS011;12865;51.934;10.330;2023-11-22T12:19:24;12.77;;;10.20;;
24761;SDS011;12865;51.934;10.330;2023-11-22T12:22:12;14.32;;;10.68;;
24761;SDS011;12865;51.934;10.330;2023-11-22T12:24:58;12.93;;;9.85;;
24761;SDS011;12865;51.934;10.330;2023-11-22T12:27:44;12.70;;;9.82;;
24761;SDS011;12865;51.934;10.330;2023-11-22T12:33:18;11.55;;;9.30;;
24761;SDS011;12865;51.934;10.330;2023-11-22T12:36:05;12.48;;;8.88;;
24761;SDS011;12865;51.934;10.330;2023-11-22T12:38:51;11.30;;;8.93;;
24761;SDS011;12865;51.934;10.330;2023-11-22T12:41:44;11.18;;;8.25;;
24761;SDS011;12865;51.934;10.330;2023-11-22T12:44:30;12.60;;;7.47;;
24761;SDS011;12865;51.934;10.330;2023-11-22T12:47:31;13.05;;;7.38;;
24761;SDS011;12865;51.934;10.330;2023-11-22T12:50:33;9.25;;;7.30;;
24761;SDS011;12865;51.934;10.330;2023-11-22T12:53:27;8.38;;;6.60;;
24761;SDS011;12865;51.934;10.330;2023-11-22T12:56:17;8.43;;;6.30;;
24761;SDS011;12865;51.934;10.330;2023-11-22T12:59:03;8.52;;;6.40;;
24761;SDS011;12865;51.934;10.330;2023-11-22T13:01:49;6.38;;;5.38;;
24761;SDS011;12865;51.934;10.330;2023-11-22T13:04:35;5.35;;;4.80;;
24761;SDS011;12865;51.934;10.330;2023-11-22T13:07:20;7.00;;;4.90;;
24761;SDS011;12865;51.934;10.330;2023-11-22T13:10:06;5.60;;;4.90;;
24761;SDS011;12865;51.934;10.330;2023-11-22T13:12:52;6.15;;;4.78;;
24761;SDS011;12865;51.934;10.330;2023-11-22T13:15:39;4.70;;;4.20;;
24761;SDS011;12865;51.934;10.330;2023-11-22T13:18:27;5.20;;;4.47;;
24761;SDS011;12865;51.934;10.330;2023-11-22T13:21:13;5.22;;;4.45;;
24761;SDS011;12865;51.934;10.330;2023-11-22T13:23:59;5.28;;;4.50;;
24761;SDS011;12865;51.934;10.330;2023-11-22T13:26:44;5.38;;;4.70;;
24761;SDS011;12865;51.934;10.330;2023-11-22T13:29:30;5.75;;;4.97;;
24761;SDS011;12865;51.934;10.330;2023-11-22T13:32:16;5.05;;;4.57;;
24761;SDS011;12865;51.934;10.330;2023-11-22T13:35:02;7.57;;;5.22;;
24761;SDS011;12865;51.934;10.330;2023-11-22T13:37:50;5.32;;;4.82;;
24761;SDS011;12865;51.934;10.330;2023-11-22T13:40:36;7.45;;;5.22;;
24761;SDS011;12865;51.934;10.330;2023-11-22T13:43:25;6.55;;;4.95;;
24761;SDS011;12865;51.934;10.330;2023-11-22T13:46:11;6.63;;;5.50;;
24761;SDS011;12865;51.934;10.330;2023-11-22T13:48:57;6.72;;;5.38;;
24761;SDS011;12865;51.934;10.330;2023-11-22T13:51:43;8.27;;;5.80;;
24761;SDS011;12865;51.934;10.330;2023-11-22T13:54:29;9.05;;;6.43;;
24761;SDS011;12865;51.934;10.330;2023-11-22T13:57:14;7.15;;;5.82;;
24761;SDS011;12865;51.934;10.330;2023-11-22T14:00:01;7.85;;;6.60;;
24761;SDS011;12865;51.934;10.330;2023-11-22T14:02:49;6.72;;;5.75;;
24761;SDS011;12865;51.934;10.330;2023-11-22T14:05:41;7.20;;;5.72;;
24761;SDS011;12865;51.934;10.330;2023-11-22T14:08:26;8.13;;;5.88;;
24761;SDS011;12865;51.934;10.330;2023-11-22T14:11:12;7.95;;;6.63;;
24761;SDS011;12865;51.934;10.330;2023-11-22T14:13:58;7.50;;;6.32;;
24761;SDS011;12865;51.934;10.330;2023-11-22T14:16:45;8.07;;;6.22;;
24761;SDS011;12865;51.934;10.330;2023-11-22T14:19:33;7.20;;;6.50;;
24761;SDS011;12865;51.934;10.330;2023-11-22T14:22:19;8.93;;;6.18;;
24761;SDS011;12865;51.934;10.330;2023-11-22T14:25:06;8.80;;;6.95;;
24761;SDS011;12865;51.934;10.330;2023-11-22T14:28:02;8.60;;;6.65;;
24761;SDS011;12865;51.934;10.330;2023-11-22T14:30:48;9.18;;;7.10;;
24761;SDS011;12865;51.934;10.330;2023-11-22T14:33:39;10.90;;;7.15;;
24761;SDS011;12865;51.934;10.330;2023-11-22T14:36:25;8.63;;;6.57;;
24761;SDS011;12865;51.934;10.330;2023-11-22T14:39:11;8.52;;;7.63;;
24761;SDS011;12865;51.934;10.330;2023-11-22T14:41:59;8.00;;;7.18;;
24761;SDS011;12865;51.934;10.330;2023-11-22T14:44:45;8.50;;;7.70;;
24761;SDS011;12865;51.934;10.330;2023-11-22T14:47:30;9.07;;;8.18;;
24761;SDS011;12865;51.934;10.330;2023-11-22T14:50:21;8.98;;;8.07;;
24761;SDS011;12865;51.934;10.330;2023-11-22T14:53:10;10.07;;;8.05;;
24761;SDS011;12865;51.934;10.330;2023-11-22T14:55:56;9.68;;;8.00;;
24761;SDS011;12865;51.934;10.330;2023-11-22T14:58:42;9.43;;;8.52;;
24761;SDS011;12865;51.934;10.330;2023-11-22T15:01:28;10.98;;;8.30;;
24761;SDS011;12865;51.934;10.330;2023-11-22T15:04:14;8.43;;;7.63;;
24761;SDS011;12865;51.934;10.330;2023-11-22T15:07:00;8.93;;;7.90;;
24761;SDS011;12865;51.934;10.330;2023-11-22T15:09:46;9.85;;;8.80;;
24761;SDS011;12865;51.934;10.330;2023-11-22T15:12:32;10.10;;;8.10;;
24761;SDS011;12865;51.934;10.330;2023-11-22T15:15:19;9.48;;;7.35;;
24761;SDS011;12865;51.934;10.330;2023-11-22T15:18:04;9.35;;;7.80;;
24761;SDS011;12865;51.934;10.330;2023-11-22T15:20:50;8.95;;;8.00;;
24761;SDS011;12865;51.934;10.330;2023-11-22T15:23:36;9.27;;;7.85;;
24761;SDS011;12865;51.934;10.330;2023-11-22T15:26:22;9.90;;;7.95;;
24761;SDS011;12865;51.934;10.330;2023-11-22T15:29:07;9.00;;;7.57;;
24761;SDS011;12865;51.934;10.330;2023-11-22T15:31:53;8.63;;;7.55;;
24761;SDS011;12865;51.934;10.330;2023-11-22T15:34:39;8.88;;;7.85;;
24761;SDS011;12865;51.934;10.330;2023-11-22T15:37:25;10.05;;;7.53;;
24761;SDS011;12865;51.934;10.330;2023-11-22T15:40:11;10.52;;;8.27;;
24761;SDS011;12865;51.934;10.330;2023-11-22T15:42:58;7.90;;;7.10;;
24761;SDS011;12865;51.934;10.330;2023-11-22T15:45:44;8.73;;;7.57;;
24761;SDS011;12865;51.934;10.330;2023-11-22T15:48:29;8.13;;;7.15;;
24761;SDS011;12865;51.934;10.330;2023-11-22T15:51:17;8.85;;;8.00;;
24761;SDS011;12865;51.934;10.330;2023-11-22T15:54:03;8.80;;;7.80;;
24761;SDS011;12865;51.934;10.330;2023-11-22T15:56:49;8.75;;;7.85;;
24761;SDS011;12865;51.934;10.330;2023-11-22T15:59:35;8.50;;;7.63;;
24761;SDS011;12865;51.934;10.330;2023-11-22T16:02:20;8.82;;;7.88;;
24761;SDS011;12865;51.934;10.330;2023-11-22T16:05:07;10.20;;;8.48;;
24761;SDS011;12865;51.934;10.330;2023-11-22T16:07:52;10.25;;;7.55;;
24761;SDS011;12865;51.934;10.330;2023-11-22T16:10:38;9.70;;;8.10;;
24761;SDS011;12865;51.934;10.330;2023-11-22T16:13:25;10.80;;;7.93;;
24761;SDS011;12865;51.934;10.330;2023-11-22T16:16:11;8.57;;;7.22;;
24761;SDS011;12865;51.934;10.330;2023-11-22T16:18:57;8.90;;;7.68;;
24761;SDS011;12865;51.934;10.330;2023-11-22T16:21:42;7.80;;;7.00;;
24761;SDS011;12865;51.934;10.330;2023-11-22T16:24:29;10.02;;;7.45;;
24761;SDS011;12865;51.934;10.330;2023-11-22T16:27:15;7.93;;;7.13;;
24761;SDS011;12865;51.934;10.330;2023-11-22T16:30:01;8.43;;;7.47;;
24761;SDS011;12865;51.934;10.330;2023-11-22T16:32:47;8.98;;;7.15;;
24761;SDS011;12865;51.934;10.330;2023-11-22T16:35:33;8.98;;;7.40;;
24761;SDS011;12865;51.934;10.330;2023-11-22T16:38:19;8.43;;;7.30;;
24761;SDS011;12865;51.934;10.330;2023-11-22T16:41:04;8.20;;;7.40;;